Time;durP1;ratioP1;P1;durP2;ratioP2;P2;SDS_P1;SDS_P2;PMS_P1;PMS_P2;Temp;Humidity;BMP_temperature;BMP_pressure;BME280_temperature;BME280_humidity;BME280_pressure;Samples;Min_cycle;Max_cycle;Signal;HPM_P1;HPM_P2
2021/03/08 00:02:09;;;;;;;27.92;18.23;;;5.00;72.20;;;3.24;68.32;96135.41;4951178;28;20035;-70
2021/03/08 00:04:35;;;;;;;27.85;17.20;;;5.00;71.80;;;3.22;68.77;96138.16;4953798;28;20123;-71
2021/03/08 00:07:01;;;;;;;28.35;17.13;;;5.10;71.50;;;3.23;67.95;96141.56;4934746;28;20097;-70
2021/03/08 00:09:26;;;;;;;27.83;16.70;;;5.00;71.40;;;3.19;68.15;96135.84;4946970;28;20666;-71
2021/03/08 00:11:52;;;;;;;26.90;17.27;;;5.10;71.30;;;3.18;68.20;96136.78;4941543;28;20712;-70
2021/03/08 00:14:18;;;;;;;26.52;17.15;;;5.00;71.50;;;3.17;68.64;96139.50;4941272;28;20035;-71
2021/03/08 00:16:43;;;;;;;30.83;17.17;;;5.00;71.50;;;3.13;68.23;96135.56;4960163;28;20035;-71
2021/03/08 00:19:09;;;;;;;23.92;16.38;;;4.90;71.00;;;3.10;68.61;96141.03;4948141;28;20090;-70
2021/03/08 00:21:35;;;;;;;28.58;16.73;;;4.90;70.70;;;3.06;68.62;96146.53;4948499;28;20031;-71
2021/03/08 00:24:01;;;;;;;24.77;16.52;;;4.80;70.40;;;2.99;67.93;96137.66;4951501;28;20035;-70
2021/03/08 00:26:27;;;;;;;23.20;16.30;;;4.70;70.60;;;2.99;68.02;96135.06;4949708;28;20569;-71
2021/03/08 00:28:53;;;;;;;25.13;16.20;;;4.80;70.10;;;2.98;68.35;96149.03;4948404;28;20122;-71
2021/03/08 00:31:18;;;;;;;23.70;15.45;;;4.80;69.90;;;2.97;67.40;96142.19;4967997;28;20059;-70
2021/03/08 00:33:44;;;;;;;27.77;16.55;;;4.80;69.50;;;2.97;67.31;96142.19;4946243;28;20094;-70
2021/03/08 00:36:10;;;;;;;24.77;16.10;;;4.80;69.30;;;2.96;67.03;96140.56;4967799;28;20035;-70
2021/03/08 00:38:35;;;;;;;22.98;15.43;;;4.70;69.30;;;2.91;67.40;96132.34;4927983;29;20671;-71
2021/03/08 00:41:01;;;;;;;27.33;16.25;;;4.70;68.90;;;2.88;66.93;96132.63;4934355;28;20062;-71
2021/03/08 00:43:27;;;;;;;21.88;14.77;;;4.60;68.60;;;2.85;66.80;96119.91;4941263;28;20071;-71
2021/03/08 00:45:53;;;;;;;22.80;15.00;;;4.70;68.20;;;2.83;66.26;96119.25;4949691;28;20039;-70
2021/03/08 00:48:18;;;;;;;25.10;16.98;;;4.70;67.60;;;2.78;66.28;96111.06;4937575;28;20043;-71
2021/03/08 00:50:44;;;;;;;23.80;15.52;;;4.60;67.60;;;2.74;65.87;96114.91;4958557;28;20047;-71
2021/03/08 00:53:10;;;;;;;21.52;15.27;;;4.60;67.90;;;2.66;66.69;96127.75;4951380;28;20766;-71
2021/03/08 00:55:35;;;;;;;25.33;15.55;;;4.50;68.10;;;2.62;66.58;96126.41;4944068;28;20046;-71
2021/03/08 00:58:01;;;;;;;23.30;14.15;;;4.40;67.70;;;2.55;66.57;96120.13;4946929;28;20574;-71
2021/03/08 01:00:27;;;;;;;22.48;14.82;;;4.40;67.60;;;2.47;66.36;96115.59;4949809;28;20471;-71
2021/03/08 01:02:53;;;;;;;23.40;15.63;;;4.30;67.80;;;2.41;66.89;96124.78;4949170;28;20051;-71
2021/03/08 01:05:20;;;;;;;27.20;16.60;;;4.30;67.90;;;2.31;66.69;96121.38;4927997;29;20430;-71
2021/03/08 01:07:46;;;;;;;25.63;16.17;;;4.10;68.50;;;2.23;66.79;96130.78;4931804;29;20063;-71
2021/03/08 01:10:15;;;;;;;25.75;15.43;;;3.90;69.20;;;2.12;67.59;96119.59;4937328;28;20142;-70
2021/03/08 01:12:41;;;;;;;27.13;16.48;;;3.90;69.60;;;2.10;66.75;96118.09;4938403;28;20030;-71
2021/03/08 01:15:08;;;;;;;26.77;16.42;;;3.90;69.60;;;2.07;66.91;96110.59;4946786;29;20035;-71
2021/03/08 01:17:35;;;;;;;27.63;16.15;;;3.90;69.90;;;2.03;67.02;96101.41;4958708;28;20126;-71
2021/03/08 01:20:01;;;;;;;27.65;16.55;;;3.90;70.20;;;1.98;66.87;96103.59;4950312;28;20070;-71
2021/03/08 01:22:26;;;;;;;26.55;16.05;;;3.80;70.50;;;1.93;67.35;96098.03;4927839;29;20341;-70
2021/03/08 01:24:52;;;;;;;26.70;17.23;;;3.80;70.50;;;1.88;66.91;96098.44;4948848;28;20518;-73
2021/03/08 01:27:18;;;;;;;24.95;16.05;;;3.80;70.80;;;1.82;67.65;96094.59;4961750;28;20105;-70
2021/03/08 01:29:43;;;;;;;26.90;15.82;;;3.60;71.00;;;1.77;67.87;96098.53;4931478;28;20048;-71
2021/03/08 01:32:09;;;;;;;24.50;15.93;;;3.70;71.00;;;1.72;67.11;96106.72;4950778;28;20023;-70
2021/03/08 01:34:35;;;;;;;29.38;16.85;;;3.60;71.20;;;1.66;67.81;96096.91;4959339;28;20098;-71
2021/03/08 01:37:01;;;;;;;25.27;17.20;;;3.50;71.20;;;1.63;67.51;96101.53;4947620;28;20039;-71
2021/03/08 01:39:27;;;;;;;26.95;17.17;;;3.50;71.00;;;1.59;67.53;96098.41;4943079;29;20122;-70
2021/03/08 01:41:53;;;;;;;26.42;17.13;;;3.40;71.30;;;1.53;68.07;96091.13;4950310;28;20046;-71
2021/03/08 01:44:18;;;;;;;29.13;18.50;;;3.40;71.40;;;1.52;67.76;96105.03;4932711;29;20118;-71
2021/03/08 01:46:44;;;;;;;25.33;17.13;;;3.40;71.50;;;1.48;67.81;96103.69;4950637;28;20036;-70
2021/03/08 01:49:10;;;;;;;27.23;18.08;;;3.30;72.00;;;1.44;67.66;96108.31;4957378;28;20513;-71
2021/03/08 01:51:36;;;;;;;28.58;18.23;;;3.20;72.00;;;1.42;67.74;96094.66;4954429;28;20503;-71
2021/03/08 01:54:01;;;;;;;29.65;17.40;;;3.20;72.10;;;1.38;67.85;96100.25;4935792;28;20097;-71
2021/03/08 01:56:27;;;;;;;30.23;17.63;;;3.20;72.10;;;1.34;68.27;96102.25;4941054;28;20529;-71
2021/03/08 01:58:53;;;;;;;27.95;17.65;;;3.20;72.10;;;1.29;68.47;96098.44;4949832;28;20368;-71
2021/03/08 02:01:19;;;;;;;29.02;18.13;;;3.20;72.30;;;1.27;68.39;96097.75;4936349;28;20035;-71
2021/03/08 02:03:44;;;;;;;25.85;17.20;;;3.10;72.30;;;1.21;68.77;96084.38;4941229;28;20142;-71
2021/03/08 02:06:10;;;;;;;26.55;17.05;;;3.10;72.10;;;1.18;68.31;96086.41;4949505;28;20035;-71
2021/03/08 02:08:38;;;;;;;25.52;16.92;;;3.10;72.10;;;1.16;68.50;96088.31;4952467;28;20086;-71
2021/03/08 02:11:03;;;;;;;27.75;17.67;;;3.10;72.00;;;1.13;68.78;96089.41;4942214;29;20043;-71
2021/03/08 02:13:51;;;;;;;27.13;17.52;;;3.00;72.10;;;1.12;71.61;96087.75;4936067;28;20039;-70
2021/03/08 02:16:36;;;;;;;27.52;17.63;;;3.00;72.20;;;1.08;70.48;96086.38;4948336;28;20067;-71
2021/03/08 02:19:52;;;;;;;25.50;17.20;;;3.00;72.10;;;1.05;71.61;96091.00;4963767;28;20043;-70
2021/03/08 02:22:56;;;;;;;23.70;16.77;;;3.00;71.90;;;0.99;71.18;96087.16;4958666;28;20507;-71
2021/03/08 02:25:49;;;;;;;29.02;17.10;;;2.90;71.80;;;0.97;70.84;96089.06;4981390;28;20039;-70
2021/03/08 02:28:55;;;;;;;24.27;16.60;;;2.90;71.90;;;0.91;71.18;96084.41;4967623;28;20035;-71
2021/03/08 02:31:21;;;;;;;24.60;16.33;;;2.80;71.80;;;0.86;68.34;96083.97;4926152;29;20457;-71
2021/03/08 02:34:01;;;;;;;25.30;16.35;;;2.80;71.70;;;0.81;70.75;96079.19;4929517;28;20085;-70
2021/03/08 02:36:31;;;;;;;26.52;16.65;;;2.80;71.50;;;0.77;69.06;96082.16;4922779;29;20115;-71
2021/03/08 02:39:16;;;;;;;24.98;16.67;;;2.70;71.80;;;0.74;71.07;96083.25;4932762;29;20061;-70
2021/03/08 02:41:42;;;;;;;29.92;17.38;;;2.60;72.10;;;0.70;69.01;96079.28;4950544;28;20031;-70
2021/03/08 02:44:11;;;;;;;24.75;16.15;;;2.60;72.30;;;0.67;69.42;96076.09;4957880;28;20455;-70
2021/03/08 02:46:38;;;;;;;28.65;17.50;;;2.60;72.20;;;0.64;68.81;96078.94;4953683;28;20033;-70
2021/03/08 02:49:09;;;;;;;25.58;16.58;;;2.60;72.30;;;0.61;69.19;96074.84;4921940;29;20495;-70
2021/03/08 02:51:40;;;;;;;26.92;17.35;;;2.50;72.50;;;0.58;70.15;96068.16;4950411;28;20474;-71
2021/03/08 02:54:05;;;;;;;26.37;17.40;;;2.50;72.50;;;0.53;69.06;96075.50;4945710;28;20051;-70
2021/03/08 02:56:33;;;;;;;28.67;17.73;;;2.40;72.60;;;0.50;69.44;96074.94;4947119;28;20349;-71
2021/03/08 02:58:59;;;;;;;26.30;16.88;;;2.40;72.70;;;0.48;68.93;96069.06;4937049;28;20502;-71
2021/03/08 03:01:25;;;;;;;28.70;18.38;;;2.40;72.50;;;0.46;69.04;96083.91;4945272;28;20092;-70
2021/03/08 03:03:55;;;;;;;26.45;17.65;;;2.40;72.60;;;0.44;70.31;96085.78;4969837;28;20547;-70
2021/03/08 03:06:25;;;;;;;27.05;17.10;;;2.30;72.50;;;0.40;69.23;96084.38;4947300;28;20046;-71
2021/03/08 03:08:50;;;;;;;29.60;16.98;;;2.30;72.60;;;0.37;69.11;96080.28;4932385;28;20519;-70
2021/03/08 03:11:16;;;;;;;24.38;16.30;;;2.30;72.60;;;0.37;69.25;96079.47;4952290;28;20142;-71
2021/03/08 03:13:44;;;;;;;32.53;17.75;;;2.30;72.60;;;0.34;69.90;96084.91;4951652;28;20339;-70
2021/03/08 03:16:10;;;;;;;28.13;17.25;;;2.30;72.60;;;0.32;69.20;96076.44;4953025;28;20058;-70
2021/03/08 03:18:36;;;;;;;25.95;16.92;;;2.20;72.70;;;0.28;69.41;96073.31;4923627;28;20032;-71
2021/03/08 03:21:06;;;;;;;26.98;16.90;;;2.20;72.70;;;0.26;70.27;96073.44;4951993;28;20129;-70
2021/03/08 03:23:33;;;;;;;25.98;17.48;;;2.20;72.70;;;0.27;69.52;96079.44;4945138;29;20039;-70
2021/03/08 03:26:00;;;;;;;30.48;17.23;;;2.20;72.70;;;0.23;69.68;96088.38;4941984;28;20027;-70
2021/03/08 03:28:26;;;;;;;28.10;17.92;;;2.10;72.70;;;0.20;69.40;96091.19;4950955;28;20608;-69
2021/03/08 03:30:51;;;;;;;28.83;18.27;;;2.10;72.60;;;0.18;69.74;96091.31;4937215;28;20047;-69
2021/03/08 03:33:17;;;;;;;26.83;17.13;;;2.10;72.80;;;0.12;69.52;96091.84;4935280;28;20062;-70
2021/03/08 03:35:43;;;;;;;28.13;17.10;;;2.00;72.90;;;0.08;69.80;96099.97;4927702;29;20064;-70
2021/03/08 03:38:09;;;;;;;27.40;16.98;;;2.10;73.00;;;0.05;69.93;96095.06;4939693;28;20050;-69
2021/03/08 03:40:35;;;;;;;26.50;16.35;;;2.00;73.10;;;0.01;69.97;96091.06;4942298;28;20043;-70
2021/03/08 03:43:01;;;;;;;27.65;16.80;;;1.90;73.20;;;-0.01;69.79;96092.00;4945437;28;20550;-70
2021/03/08 03:45:26;;;;;;;25.58;17.08;;;1.90;73.50;;;-0.04;69.97;96105.19;4949246;29;20106;-70
2021/03/08 03:47:52;;;;;;;26.13;17.80;;;1.90;73.60;;;-0.08;70.02;96096.03;4947928;28;20457;-69
2021/03/08 03:50:20;;;;;;;25.92;16.98;;;1.90;73.70;;;-0.10;70.80;96097.09;4951231;28;20671;-70
2021/03/08 03:52:46;;;;;;;27.20;17.40;;;1.90;73.70;;;-0.11;70.14;96101.44;4919497;29;20122;-70
2021/03/08 03:55:14;;;;;;;29.30;17.80;;;1.90;73.70;;;-0.11;70.60;96111.78;4938849;28;20047;-70
2021/03/08 03:58:26;;;;;;;28.05;18.35;;;1.80;73.80;;;-0.16;72.92;96103.59;4967759;28;20093;-70
2021/03/08 04:01:04;;;;;;;27.33;17.33;;;1.80;73.80;;;-0.17;72.26;96117.47;4941206;28;20130;-70
2021/03/08 04:03:40;;;;;;;27.48;17.55;;;1.70;74.00;;;-0.21;71.78;96116.06;4934086;29;20035;-70
2021/03/08 04:06:06;;;;;;;24.95;16.13;;;1.70;74.20;;;-0.22;70.25;96118.78;4948124;28;20042;-70
2021/03/08 04:08:31;;;;;;;29.10;17.08;;;1.70;74.30;;;-0.23;70.52;96117.09;4946755;28;20073;-71
2021/03/08 04:10:58;;;;;;;26.70;17.42;;;1.70;74.40;;;-0.25;70.64;96117.22;4924191;28;20651;-70
2021/03/08 04:13:29;;;;;;;29.30;17.55;;;1.70;74.30;;;-0.26;71.73;96118.19;4951542;28;20081;-70
2021/03/08 04:15:55;;;;;;;;;;;1.70;74.30;;;-0.28;73.80;96129.59;4952710;28;20027;-70
2021/03/08 04:18:23;;;;;;;28.85;17.27;;;1.70;74.40;;;-0.31;70.48;96135.81;4959587;28;19918;-71
2021/03/08 04:20:48;;;;;;;27.48;17.30;;;1.60;74.30;;;-0.33;70.04;96127.38;4944986;28;20035;-71
2021/03/08 04:23:14;;;;;;;26.27;17.20;;;1.70;74.10;;;-0.35;70.61;96124.91;4948673;28;20569;-70
2021/03/08 04:25:40;;;;;;;25.95;16.83;;;1.70;73.90;;;-0.37;70.60;96129.38;4946138;28;20027;-71
2021/03/08 04:28:06;;;;;;;25.77;16.77;;;1.60;73.70;;;-0.36;70.70;96122.44;4932625;29;20046;-71
2021/03/08 04:30:32;;;;;;;24.80;16.60;;;1.60;73.60;;;-0.36;70.54;96123.28;4933492;28;20070;-70
2021/03/08 04:32:58;;;;;;;26.83;17.38;;;1.60;73.20;;;-0.37;70.29;96110.47;4951453;28;20351;-70
2021/03/08 04:35:26;;;;;;;26.20;17.33;;;1.60;73.30;;;-0.40;70.77;96110.72;4938856;29;20046;-71
2021/03/08 04:37:52;;;;;;;28.55;17.30;;;1.60;73.10;;;-0.42;70.58;96108.25;4932494;29;20031;-71
2021/03/08 04:40:18;;;;;;;27.05;16.83;;;1.60;73.10;;;-0.45;70.54;96107.69;4924086;28;20063;-70
2021/03/08 04:42:44;;;;;;;26.67;16.50;;;1.50;72.90;;;-0.50;70.11;96115.78;4936228;28;20466;-71
2021/03/08 04:45:11;;;;;;;24.38;16.50;;;1.50;72.60;;;-0.52;70.39;96122.00;4928987;28;20546;-71
2021/03/08 04:47:36;;;;;;;26.05;16.30;;;1.40;72.50;;;-0.56;70.08;96125.78;4938226;29;20051;-71
2021/03/08 04:50:03;;;;;;;29.10;16.70;;;1.40;72.60;;;-0.60;70.20;96134.72;4943277;28;20498;-70
2021/03/08 04:52:29;;;;;;;26.10;16.75;;;1.40;72.50;;;-0.63;70.11;96136.59;4937161;28;20051;-70
2021/03/08 04:54:54;;;;;;;26.75;16.92;;;1.40;72.40;;;-0.65;70.38;96142.81;4916327;29;20047;-71
2021/03/08 04:57:21;;;;;;;25.48;17.02;;;1.30;72.50;;;-0.66;70.06;96136.84;4950425;28;20039;-71
2021/03/08 04:59:49;;;;;;;25.98;16.48;;;1.30;72.60;;;-0.68;70.55;96143.03;4951725;28;20094;-71
2021/03/08 05:02:15;;;;;;;25.73;17.33;;;1.30;72.70;;;-0.71;70.15;96136.34;4935550;29;20082;-69
2021/03/08 05:04:43;;;;;;;25.17;16.60;;;1.30;72.80;;;-0.72;70.40;96142.44;4931786;29;20078;-69
2021/03/08 05:07:09;;;;;;;25.77;16.17;;;1.30;72.70;;;-0.74;70.24;96149.50;4937590;28;20035;-67
2021/03/08 05:09:35;;;;;;;26.50;16.08;;;1.30;72.80;;;-0.75;70.27;96147.84;4957708;28;20777;-70
2021/03/08 05:12:01;;;;;;;26.05;16.00;;;1.20;72.80;;;-0.78;70.28;96155.84;4933328;28;20491;-68
2021/03/08 05:14:27;;;;;;;26.48;17.05;;;1.20;72.90;;;-0.80;70.46;96149.97;4916536;29;20035;-68
2021/03/08 05:16:53;;;;;;;26.48;15.95;;;1.10;73.00;;;-0.83;70.42;96152.81;4961043;28;20031;-68
2021/03/08 05:19:19;;;;;;;27.80;16.48;;;1.10;73.20;;;-0.84;70.13;96155.50;4933777;29;20027;-68
2021/03/08 05:21:44;;;;;;;24.80;15.75;;;1.10;73.10;;;-0.86;70.57;96154.81;4946029;28;20070;-68
2021/03/08 05:24:11;;;;;;;27.25;16.90;;;1.10;72.90;;;-0.88;70.71;96154.91;4947740;28;20027;-68
2021/03/08 05:26:37;;;;;;;27.33;17.38;;;1.10;72.90;;;-0.90;70.40;96161.97;4934316;28;20055;-71
2021/03/08 05:29:02;;;;;;;26.63;17.27;;;1.10;72.80;;;-0.94;70.44;96161.34;4939604;28;20070;-71
2021/03/08 05:31:31;;;;;;;26.23;17.58;;;1.10;72.70;;;-0.96;70.81;96159.84;4947056;28;20048;-72
2021/03/08 05:34:01;;;;;;;40.25;24.70;;;1.00;72.90;;;-0.96;71.39;96159.84;4931154;29;20512;-71
2021/03/08 05:36:26;;;;;;;32.53;21.05;;;1.10;74.20;;;-0.98;70.69;96162.53;4911183;29;20514;-72
2021/03/08 05:38:52;;;;;;;33.90;21.70;;;1.10;73.70;;;-1.00;71.15;96164.41;4928014;29;20043;-71
2021/03/08 05:41:28;;;;;;;25.13;16.08;;;1.10;73.30;;;-1.01;71.98;96156.78;4946471;28;20519;-71
2021/03/08 05:43:56;;;;;;;23.10;15.85;;;1.10;72.30;;;-1.02;71.13;96160.31;4957325;28;20040;-70
2021/03/08 05:46:22;;;;;;;25.42;17.33;;;1.00;72.30;;;-1.03;70.79;96158.66;4935695;29;20049;-72
2021/03/08 05:49:36;;;;;;;26.02;16.95;;;1.00;72.00;;;-1.02;72.25;96170.63;4959056;28;20043;-71
2021/03/08 05:52:59;;;;;;;30.83;18.50;;;1.00;71.90;;;-1.02;72.66;96176.63;4936654;29;20142;-71
2021/03/08 05:55:39;;;;;;;40.10;23.95;;;1.10;72.60;;;-1.03;72.01;96179.31;4947010;28;20039;-70
2021/03/08 05:59:07;;;;;;;52.67;34.80;;;1.00;71.80;;;-1.05;71.89;96184.59;4932044;28;20034;-70
2021/03/08 06:01:54;;;;;;;46.80;27.63;;;1.00;71.90;;;-1.07;71.56;96185.66;4911090;29;20039;-71
2021/03/08 06:04:35;;;;;;;27.58;17.40;;;1.10;71.20;;;-1.07;70.67;96180.50;4943934;28;20069;-70
2021/03/08 06:07:52;;;;;;;23.40;15.75;;;1.00;70.80;;;-1.07;71.36;96183.06;4936791;28;20054;-70
2021/03/08 06:10:25;;;;;;;25.48;16.52;;;1.00;70.80;;;-1.09;70.50;96184.94;4923266;28;20059;-70
2021/03/08 06:12:54;;;;;;;21.33;14.80;;;0.90;70.80;;;-1.12;69.89;96191.16;4916456;29;20035;-71
2021/03/08 06:15:21;;;;;;;25.45;14.85;;;0.90;71.10;;;-1.11;69.87;96195.38;4932532;28;20062;-71
2021/03/08 06:17:49;;;;;;;25.42;15.25;;;0.90;70.80;;;-1.10;69.81;96188.47;4916741;29;20055;-68
2021/03/08 06:20:15;;;;;;;22.27;14.85;;;1.00;70.80;;;-1.08;69.97;96191.75;4915487;29;20102;-68
2021/03/08 06:22:41;;;;;;;21.48;14.70;;;1.00;70.70;;;-1.08;69.49;96191.75;4914519;28;20471;-70
2021/03/08 06:25:07;;;;;;;21.50;13.77;;;1.10;70.30;;;-1.04;69.33;96199.13;4935145;28;20035;-67
2021/03/08 06:27:33;;;;;;;25.42;15.52;;;1.10;69.90;;;-1.02;69.53;96199.03;4932580;29;20700;-69
2021/03/08 06:29:58;;;;;;;47.10;31.15;;;1.10;70.00;;;-0.99;69.52;96198.78;4915308;28;20042;-70
2021/03/08 06:32:24;;;;;;;29.30;18.33;;;1.20;70.10;;;-0.95;69.87;96207.94;4934773;29;20170;-74
2021/03/08 06:34:50;;;;;;;35.20;20.85;;;1.30;69.70;;;-0.90;69.74;96216.19;4932610;28;20032;-66
2021/03/08 06:37:16;;;;;;;28.50;18.25;;;1.40;69.90;;;-0.83;69.67;96209.63;4950590;28;20066;-64
2021/03/08 06:39:43;;;;;;;22.08;14.82;;;1.50;69.80;;;-0.76;69.52;96218.53;4933508;29;20129;-65
2021/03/08 06:42:10;;;;;;;20.85;15.40;;;1.50;68.90;;;-0.70;69.66;96209.47;4944190;28;20604;-73
2021/03/08 06:44:37;;;;;;;20.08;13.50;;;1.60;68.80;;;-0.65;69.59;96221.13;4941482;28;20034;-74
2021/03/08 06:47:05;;;;;;;20.60;13.85;;;1.70;68.50;;;-0.57;69.43;96224.88;4949734;28;20039;-73
2021/03/08 06:49:32;;;;;;;21.33;13.68;;;1.80;68.10;;;-0.47;69.39;96231.78;4950084;28;20043;-69
2021/03/08 06:52:15;;;;;;;21.17;14.23;;;1.90;67.50;;;-0.34;69.86;96234.28;4950138;28;20134;-72
2021/03/08 06:54:42;;;;;;;20.67;13.13;;;2.20;67.00;;;-0.19;69.15;96235.69;4949119;28;20031;-69
2021/03/08 06:57:23;;;;;;;17.92;12.70;;;2.40;66.30;;;-0.04;69.33;96236.22;4933311;29;20038;-69
2021/03/08 06:59:53;;;;;;;20.02;13.18;;;2.70;65.30;;;0.12;68.77;96230.66;4950797;29;20043;-68
2021/03/08 07:02:23;;;;;;;22.13;14.13;;;3.00;64.00;;;0.28;68.76;96225.94;4933966;29;20043;-70
2021/03/08 07:04:50;;;;;;;20.15;12.85;;;3.30;63.40;;;0.48;68.37;96227.75;4952402;28;20039;-71
2021/03/08 07:07:16;;;;;;;20.02;13.18;;;3.60;61.30;;;0.70;68.26;96231.19;4937185;29;20043;-73
2021/03/08 07:09:49;;;;;;;18.48;12.82;;;4.00;60.30;;;0.92;67.49;96228.47;4936437;28;20415;-69
2021/03/08 07:12:15;;;;;;;22.88;14.75;;;4.40;58.50;;;1.16;67.72;96234.22;4943750;28;20035;-70
2021/03/08 07:14:42;;;;;;;20.73;14.20;;;4.80;57.90;;;1.40;67.70;96240.88;4935189;29;20062;-74
2021/03/08 07:17:29;;;;;;;27.33;17.13;;;5.20;56.40;;;1.66;66.08;96239.50;4966266;28;20105;-69
2021/03/08 07:19:56;;;;;;;19.42;13.07;;;5.50;55.60;;;1.87;67.51;96243.81;4947502;28;20031;-69
2021/03/08 07:22:51;;;;;;;22.45;13.77;;;5.50;54.80;;;2.11;64.97;96244.28;4950652;28;20035;-69
2021/03/08 07:25:19;;;;;;;31.45;20.05;;;5.70;54.60;;;2.41;65.63;96251.16;4965367;28;20062;-72
2021/03/08 07:27:59;;;;;;;19.10;13.50;;;6.20;53.40;;;2.74;63.96;96248.19;4952907;29;20051;-74
2021/03/08 07:30:26;;;;;;;17.65;12.32;;;6.90;50.80;;;3.08;66.70;96248.56;4960276;28;20042;-68
2021/03/08 07:33:00;;;;;;;17.17;12.20;;;7.60;49.00;;;3.50;63.53;96248.19;4940057;28;20055;-74
2021/03/08 07:35:42;;;;;;;21.52;14.63;;;8.50;46.90;;;4.02;61.70;96251.13;4973044;28;20090;-76
2021/03/08 07:38:12;;;;;;;19.17;12.32;;;9.20;44.80;;;4.44;63.12;96255.84;4934432;29;20047;-76
2021/03/08 07:40:41;;;;;;;16.07;11.27;;;9.70;43.30;;;4.85;63.19;96242.22;4948604;28;20028;-76
2021/03/08 07:43:17;;;;;;;13.95;10.88;;;10.20;42.10;;;5.27;63.99;96244.19;4931205;29;20529;-69
2021/03/08 07:45:44;;;;;;;18.67;10.57;;;10.50;40.30;;;5.72;61.97;96235.34;4952419;28;20035;-71
2021/03/08 07:48:15;;;;;;;15.60;11.98;;;11.10;38.80;;;6.13;60.02;96239.78;4943252;28;20843;-69
2021/03/08 07:50:42;;;;;;;16.48;11.95;;;11.60;36.60;;;6.63;61.84;96232.91;4964625;28;20035;-70
2021/03/08 07:53:34;;;;;;;16.48;11.35;;;12.40;34.90;;;7.21;51.77;96234.53;4931862;29;20091;-68
2021/03/08 07:56:05;;;;;;;10.40;8.75;;;13.30;32.90;;;7.71;57.49;96241.38;4935811;29;20038;-70
2021/03/08 07:58:35;;;;;;;11.63;9.10;;;14.10;32.10;;;8.17;54.62;96244.97;4934562;29;20460;-68
2021/03/08 08:01:10;;;;;;;13.13;8.52;;;14.60;30.90;;;8.58;50.67;96240.34;4934861;28;20403;-68
2021/03/08 08:03:36;;;;;;;10.63;8.52;;;15.00;29.70;;;8.97;57.32;96248.13;4960495;28;20058;-69
2021/03/08 08:06:04;;;;;;;11.93;8.65;;;15.70;28.90;;;9.36;54.01;96240.13;4920056;29;20042;-68
2021/03/08 08:08:33;;;;;;;12.10;8.80;;;16.00;28.90;;;9.70;53.51;96237.00;4921406;29;20063;-75
2021/03/08 08:11:00;;;;;;;14.13;9.50;;;16.50;28.50;;;10.07;54.97;96244.00;4950348;28;20050;-74
2021/03/08 08:13:41;;;;;;;12.23;8.65;;;17.10;28.10;;;10.41;47.57;96246.09;4955695;28;20115;-68
2021/03/08 08:16:08;;;;;;;17.27;11.18;;;17.50;27.00;;;10.75;52.44;96242.00;4935653;29;20042;-68
2021/03/08 08:18:41;;;;;;;18.38;11.70;;;17.70;26.90;;;11.07;46.00;96253.03;4917957;29;20503;-71
2021/03/08 08:21:19;;;;;;;14.77;9.10;;;17.80;26.30;;;11.39;44.30;96244.63;4950174;28;20051;-70
2021/03/08 08:23:56;;;;;;;11.95;9.23;;;18.10;26.30;;;11.58;44.64;96249.25;4953497;28;20027;-70
2021/03/08 08:26:23;;;;;;;10.63;8.20;;;18.20;26.10;;;11.78;49.07;96253.84;4924981;29;20410;-68
2021/03/08 08:28:49;;;;;;;12.85;8.93;;;18.50;25.70;;;11.94;48.69;96246.47;4963117;28;20511;-74
2021/03/08 08:31:15;;;;;;;11.15;9.13;;;18.70;25.00;;;12.14;47.90;96253.69;4950729;28;20627;-68
2021/03/08 08:33:40;;;;;;;13.20;8.57;;;19.00;25.10;;;12.28;47.24;96255.41;4946504;28;20035;-67
2021/03/08 08:36:24;;;;;;;12.77;8.77;;;19.20;24.50;;;12.40;41.23;96253.00;4950209;28;20039;-68
2021/03/08 08:38:55;;;;;;;12.95;8.75;;;19.30;24.40;;;12.52;41.21;96251.44;4944271;28;20043;-69
2021/03/08 08:41:25;;;;;;;12.15;8.90;;;19.10;24.20;;;12.58;41.16;96255.91;4985626;28;20035;-69
2021/03/08 08:44:10;;;;;;;10.85;9.13;;;19.60;23.80;;;12.75;40.29;96254.56;4943858;28;20039;-68
2021/03/08 08:46:45;;;;;;;12.10;9.13;;;19.70;23.90;;;12.95;41.40;96251.97;4951073;29;20043;-72
2021/03/08 08:49:21;;;;;;;12.73;8.50;;;19.90;24.00;;;13.05;39.65;96248.94;4953316;28;20031;-69
2021/03/08 08:52:00;;;;;;;11.55;8.27;;;20.10;23.10;;;13.22;39.13;96254.69;4924097;28;20031;-75
2021/03/08 08:54:31;;;;;;;13.35;9.05;;;20.20;23.60;;;13.43;41.10;96254.50;4949771;28;20089;-69
2021/03/08 08:57:11;;;;;;;12.70;9.18;;;20.30;23.40;;;13.61;38.51;96241.50;4960646;28;20043;-67
2021/03/08 08:59:37;;;;;;;12.85;8.95;;;20.00;23.70;;;13.76;43.25;96241.28;4918891;29;20027;-67
2021/03/08 09:02:17;;;;;;;11.00;9.02;;;19.70;23.70;;;13.77;37.34;96234.97;4931323;28;20525;-68
2021/03/08 09:04:44;;;;;;;10.48;9.02;;;19.60;23.50;;;13.93;41.49;96237.19;4951525;29;20502;-73
2021/03/08 09:07:23;;;;;;;10.75;8.70;;;19.80;23.50;;;14.13;36.63;96239.00;4965503;28;20057;-71
2021/03/08 09:09:49;;;;;;;15.20;10.77;;;20.20;23.20;;;14.31;42.03;96241.78;4954255;28;20671;-71
2021/03/08 09:12:35;;;;;;;14.30;11.02;;;20.40;23.60;;;14.63;36.62;96240.88;4958438;28;20047;-69
2021/03/08 09:15:12;;;;;;;11.13;9.07;;;20.30;23.90;;;14.85;36.51;96237.91;4943837;28;20032;-69
2021/03/08 09:17:48;;;;;;;11.32;9.07;;;20.00;23.60;;;14.87;35.78;96235.88;4952509;28;20042;-67
2021/03/08 09:20:13;;;;;;;13.90;9.05;;;19.80;23.90;;;14.91;40.15;96245.00;4958649;28;20038;-67
2021/03/08 09:22:47;;;;;;;12.95;9.07;;;20.10;23.80;;;15.09;37.22;96246.94;4985008;28;20034;-68
2021/03/08 09:25:29;;;;;;;12.75;9.63;;;20.30;24.00;;;15.23;35.62;96236.06;4936481;29;20672;-68
2021/03/08 09:27:58;;;;;;;13.93;9.38;;;20.20;24.40;;;15.41;37.25;96240.63;4936150;28;20046;-71
2021/03/08 09:30:38;;;;;;;12.98;8.65;;;20.10;24.00;;;15.53;35.46;96246.03;4969812;28;20035;-74
2021/03/08 09:33:15;;;;;;;13.68;8.57;;;20.30;24.10;;;15.75;34.68;96235.88;4948970;28;20027;-69
2021/03/08 09:35:43;;;;;;;18.77;8.60;;;20.20;23.00;;;15.91;36.62;96238.78;4935597;28;20107;-70
2021/03/08 09:38:26;;;;;;;22.08;10.52;;;20.30;23.40;;;16.04;34.30;96252.94;4940076;28;20038;-72
2021/03/08 09:40:57;;;;;;;11.90;8.55;;;20.60;23.80;;;16.16;35.40;96238.75;4915533;29;20039;-72
2021/03/08 09:43:31;;;;;;;11.05;8.98;;;20.80;23.10;;;16.32;34.38;96245.31;4949595;28;20142;-73
2021/03/08 09:46:13;;;;;;;9.70;6.70;;;21.20;23.10;;;16.44;31.72;96248.84;4949356;28;20035;-68
2021/03/08 09:48:41;;;;;;;13.00;8.18;;;21.60;21.50;;;16.62;35.40;96250.69;4949158;28;21626;-74
2021/03/08 09:51:15;;;;;;;12.68;7.68;;;21.80;21.80;;;16.79;33.11;96253.56;4916500;29;20051;-68
2021/03/08 09:53:45;;;;;;;18.92;7.82;;;22.20;21.00;;;16.96;32.85;96251.91;4968822;28;20051;-67
2021/03/08 09:56:15;;;;;;;;;;;22.30;20.70;;;17.09;30.17;96251.72;4964737;28;20058;-71
2021/03/08 09:58:41;;;;;;;8.02;6.63;;;22.60;20.10;;;17.19;35.20;96255.69;4952783;28;20042;-73
2021/03/08 10:01:21;;;;;;;11.48;7.40;;;23.10;19.40;;;17.50;30.78;96251.97;4918886;29;20676;-67
2021/03/08 10:03:47;;;;;;;12.18;7.20;;;23.60;18.60;;;17.92;34.60;96250.06;4933892;29;20122;-68
2021/03/08 10:06:32;;;;;;;8.77;6.60;;;24.20;18.60;;;18.55;29.16;96251.97;4967911;28;20039;-65
2021/03/08 10:09:15;;;;;;;11.38;6.30;;;25.30;17.20;;;19.18;32.81;96256.41;4936913;28;20031;-73
2021/03/08 10:11:41;;;;;;;7.53;6.03;;;26.30;16.50;;;19.79;32.94;96249.50;4942822;28;20058;-66
2021/03/08 10:14:06;;;;;;;9.70;6.88;;;27.40;15.60;;;20.38;32.46;96247.16;4955532;28;20035;-68
2021/03/08 10:16:32;;;;;;;9.00;6.30;;;27.60;14.70;;;20.80;31.59;96256.25;4949835;28;20411;-69
2021/03/08 10:19:07;;;;;;;7.90;6.30;;;28.50;14.80;;;21.40;25.66;96249.16;4953734;28;20535;-71
2021/03/08 10:21:41;;;;;;;9.25;6.25;;;29.30;14.00;;;21.67;24.56;96249.94;4960679;28;20526;-68
2021/03/08 10:24:08;;;;;;;11.35;9.40;;;30.20;12.70;;;21.89;29.47;96251.72;4935639;29;20070;-68
2021/03/08 10:26:33;;;;;;;10.07;6.53;;;31.00;12.60;;;22.10;29.69;96248.16;4932344;29;20672;-68
2021/03/08 10:28:59;;;;;;;9.57;7.00;;;31.30;12.40;;;22.38;28.54;96238.13;4950681;28;20065;-68
2021/03/08 10:31:26;;;;;;;13.63;10.80;;;31.90;11.90;;;22.80;28.25;96240.72;4941939;28;20039;-80